sensor_id;sensor_type;location;lat;lon;timestamp;P1;durP1;ratioP1;P2;durP2;ratioP2
793;SDS011;380;48.738;9.214;2023-07-30T00:00:51;2.42;;;1.45;;
793;SDS011;380;48.738;9.214;2023-07-30T00:03:17;1.63;;;0.90;;
793;SDS011;380;48.738;9.214;2023-07-30T00:05:50;1.52;;;0.73;;
793;SDS011;380;48.738;9.214;2023-07-30T00:08:16;1.73;;;0.90;;
793;SDS011;380;48.738;9.214;2023-07-30T00:10:42;2.03;;;1.10;;
793;SDS011;380;48.738;9.214;2023-07-30T00:13:08;1.83;;;1.17;;
793;SDS011;380;48.738;9.214;2023-07-30T00:15:34;3.55;;;1.30;;
793;SDS011;380;48.738;9.214;2023-07-30T00:18:00;3.35;;;2.00;;
793;SDS011;380;48.738;9.214;2023-07-30T00:20:26;3.28;;;2.13;;
793;SDS011;380;48.738;9.214;2023-07-30T00:22:52;4.25;;;2.28;;
793;SDS011;380;48.738;9.214;2023-07-30T00:25:18;2.60;;;1.65;;
793;SDS011;380;48.738;9.214;2023-07-30T00:27:44;2.33;;;1.75;;
793;SDS011;380;48.738;9.214;2023-07-30T00:30:10;3.90;;;1.60;;
793;SDS011;380;48.738;9.214;2023-07-30T00:32:36;2.33;;;1.45;;
793;SDS011;380;48.738;9.214;2023-07-30T00:35:05;2.13;;;1.45;;
793;SDS011;380;48.738;9.214;2023-07-30T00:37:31;2.30;;;1.55;;
793;SDS011;380;48.738;9.214;2023-07-30T00:39:57;2.58;;;1.88;;
793;SDS011;380;48.738;9.214;2023-07-30T00:42:23;2.78;;;1.88;;
793;SDS011;380;48.738;9.214;2023-07-30T00:44:49;2.95;;;1.80;;
793;SDS011;380;48.738;9.214;2023-07-30T00:47:15;3.42;;;2.13;;
793;SDS011;380;48.738;9.214;2023-07-30T00:49:41;2.72;;;1.88;;
793;SDS011;380;48.738;9.214;2023-07-30T00:52:07;2.70;;;1.90;;
793;SDS011;380;48.738;9.214;2023-07-30T00:54:33;3.55;;;2.35;;
793;SDS011;380;48.738;9.214;2023-07-30T00:56:59;3.25;;;2.08;;
793;SDS011;380;48.738;9.214;2023-07-30T00:59:26;3.83;;;2.10;;
793;SDS011;380;48.738;9.214;2023-07-30T01:01:52;6.07;;;2.55;;
793;SDS011;380;48.738;9.214;2023-07-30T01:04:19;3.67;;;2.15;;
793;SDS011;380;48.738;9.214;2023-07-30T01:06:45;2.88;;;2.22;;
793;SDS011;380;48.738;9.214;2023-07-30T01:09:11;4.10;;;2.90;;
793;SDS011;380;48.738;9.214;2023-07-30T01:11:37;3.85;;;2.60;;
793;SDS011;380;48.738;9.214;2023-07-30T01:14:03;3.60;;;2.33;;
793;SDS011;380;48.738;9.214;2023-07-30T01:16:30;3.42;;;2.72;;
793;SDS011;380;48.738;9.214;2023-07-30T01:18:56;3.50;;;2.47;;
793;SDS011;380;48.738;9.214;2023-07-30T01:21:24;3.15;;;2.25;;
793;SDS011;380;48.738;9.214;2023-07-30T01:23:49;3.20;;;2.35;;
793;SDS011;380;48.738;9.214;2023-07-30T01:26:27;2.58;;;2.17;;
793;SDS011;380;48.738;9.214;2023-07-30T01:28:54;3.67;;;2.42;;
793;SDS011;380;48.738;9.214;2023-07-30T01:31:22;3.22;;;2.92;;
793;SDS011;380;48.738;9.214;2023-07-30T01:33:50;4.60;;;2.97;;
793;SDS011;380;48.738;9.214;2023-07-30T01:36:18;4.05;;;2.58;;
793;SDS011;380;48.738;9.214;2023-07-30T01:38:45;3.50;;;2.63;;
793;SDS011;380;48.738;9.214;2023-07-30T01:41:12;2.78;;;2.20;;
793;SDS011;380;48.738;9.214;2023-07-30T01:43:38;3.22;;;2.42;;
793;SDS011;380;48.738;9.214;2023-07-30T01:46:04;3.60;;;2.58;;
793;SDS011;380;48.738;9.214;2023-07-30T01:48:30;4.57;;;2.40;;
793;SDS011;380;48.738;9.214;2023-07-30T01:50:56;2.95;;;2.25;;
793;SDS011;380;48.738;9.214;2023-07-30T01:53:22;3.38;;;2.60;;
793;SDS011;380;48.738;9.214;2023-07-30T01:55:48;3.90;;;2.92;;
793;SDS011;380;48.738;9.214;2023-07-30T01:58:14;4.22;;;3.00;;
793;SDS011;380;48.738;9.214;2023-07-30T02:00:40;3.17;;;2.50;;
793;SDS011;380;48.738;9.214;2023-07-30T02:03:06;2.95;;;2.42;;
793;SDS011;380;48.738;9.214;2023-07-30T02:05:32;3.67;;;2.45;;
793;SDS011;380;48.738;9.214;2023-07-30T02:07:58;2.85;;;2.17;;
793;SDS011;380;48.738;9.214;2023-07-30T02:10:24;3.72;;;2.85;;
793;SDS011;380;48.738;9.214;2023-07-30T02:12:50;3.28;;;2.40;;
793;SDS011;380;48.738;9.214;2023-07-30T02:15:16;4.05;;;2.53;;
793;SDS011;380;48.738;9.214;2023-07-30T02:17:42;2.92;;;2.22;;
793;SDS011;380;48.738;9.214;2023-07-30T02:20:08;3.30;;;2.40;;
793;SDS011;380;48.738;9.214;2023-07-30T02:22:34;4.28;;;2.42;;
793;SDS011;380;48.738;9.214;2023-07-30T02:25:00;3.03;;;2.08;;
793;SDS011;380;48.738;9.214;2023-07-30T02:27:26;2.60;;;1.90;;
793;SDS011;380;48.738;9.214;2023-07-30T02:29:52;5.38;;;2.30;;
793;SDS011;380;48.738;9.214;2023-07-30T02:32:18;3.25;;;2.28;;
793;SDS011;380;48.738;9.214;2023-07-30T02:34:44;2.40;;;1.58;;
793;SDS011;380;48.738;9.214;2023-07-30T02:37:10;3.25;;;1.92;;
793;SDS011;380;48.738;9.214;2023-07-30T02:39:36;2.60;;;1.65;;
793;SDS011;380;48.738;9.214;2023-07-30T02:42:02;2.53;;;1.83;;
793;SDS011;380;48.738;9.214;2023-07-30T02:44:28;2.83;;;2.10;;
793;SDS011;380;48.738;9.214;2023-07-30T02:46:54;3.20;;;1.92;;
793;SDS011;380;48.738;9.214;2023-07-30T02:49:19;2.95;;;1.95;;
793;SDS011;380;48.738;9.214;2023-07-30T02:51:45;2.92;;;1.85;;
793;SDS011;380;48.738;9.214;2023-07-30T02:54:13;2.97;;;2.00;;
793;SDS011;380;48.738;9.214;2023-07-30T02:56:41;2.60;;;1.77;;
793;SDS011;380;48.738;9.214;2023-07-30T02:59:07;2.67;;;1.70;;
793;SDS011;380;48.738;9.214;2023-07-30T03:01:33;1.90;;;1.23;;
793;SDS011;380;48.738;9.214;2023-07-30T03:03:59;2.47;;;1.40;;
793;SDS011;380;48.738;9.214;2023-07-30T03:06:24;5.10;;;1.90;;
793;SDS011;380;48.738;9.214;2023-07-30T03:08:51;2.42;;;1.58;;
793;SDS011;380;48.738;9.214;2023-07-30T03:11:16;3.78;;;2.08;;
793;SDS011;380;48.738;9.214;2023-07-30T03:13:42;2.97;;;1.73;;
793;SDS011;380;48.738;9.214;2023-07-30T03:16:12;2.25;;;1.38;;
793;SDS011;380;48.738;9.214;2023-07-30T03:18:37;2.80;;;1.73;;
793;SDS011;380;48.738;9.214;2023-07-30T03:21:03;2.65;;;1.90;;
793;SDS011;380;48.738;9.214;2023-07-30T03:23:29;5.85;;;1.80;;
793;SDS011;380;48.738;9.214;2023-07-30T03:25:56;2.58;;;1.70;;
793;SDS011;380;48.738;9.214;2023-07-30T03:28:22;6.20;;;1.60;;
793;SDS011;380;48.738;9.214;2023-07-30T03:30:48;2.67;;;1.75;;
793;SDS011;380;48.738;9.214;2023-07-30T03:33:14;2.92;;;1.83;;
793;SDS011;380;48.738;9.214;2023-07-30T03:35:40;2.38;;;1.70;;
793;SDS011;380;48.738;9.214;2023-07-30T03:38:06;2.78;;;2.00;;
793;SDS011;380;48.738;9.214;2023-07-30T03:40:31;3.45;;;1.70;;
793;SDS011;380;48.738;9.214;2023-07-30T03:42:57;3.17;;;1.90;;
793;SDS011;380;48.738;9.214;2023-07-30T03:45:23;2.75;;;1.90;;
793;SDS011;380;48.738;9.214;2023-07-30T03:47:49;2.58;;;1.80;;
793;SDS011;380;48.738;9.214;2023-07-30T03:50:15;2.42;;;1.50;;
793;SDS011;380;48.738;9.214;2023-07-30T03:52:41;2.72;;;1.40;;
793;SDS011;380;48.738;9.214;2023-07-30T03:55:07;2.72;;;1.85;;
793;SDS011;380;48.738;9.214;2023-07-30T03:57:33;3.10;;;1.98;;
793;SDS011;380;48.738;9.214;2023-07-30T03:59:59;4.82;;;1.75;;
793;SDS011;380;48.738;9.214;2023-07-30T04:02:25;3.28;;;2.33;;
793;SDS011;380;48.738;9.214;2023-07-30T04:04:51;3.15;;;2.22;;
793;SDS011;380;48.738;9.214;2023-07-30T04:07:17;4.63;;;1.77;;
793;SDS011;380;48.738;9.214;2023-07-30T04:09:43;2.50;;;2.10;;
793;SDS011;380;48.738;9.214;2023-07-30T04:12:09;3.65;;;2.03;;
793;SDS011;380;48.738;9.214;2023-07-30T04:14:35;2.78;;;1.88;;
793;SDS011;380;48.738;9.214;2023-07-30T04:17:01;3.13;;;1.67;;
793;SDS011;380;48.738;9.214;2023-07-30T04:19:27;3.70;;;1.83;;
793;SDS011;380;48.738;9.214;2023-07-30T04:21:53;2.42;;;1.48;;
793;SDS011;380;48.738;9.214;2023-07-30T04:24:19;2.55;;;1.63;;
793;SDS011;380;48.738;9.214;2023-07-30T04:26:45;3.17;;;1.77;;
793;SDS011;380;48.738;9.214;2023-07-30T04:29:11;4.03;;;1.85;;
793;SDS011;380;48.738;9.214;2023-07-30T04:31:38;1.80;;;1.33;;
793;SDS011;380;48.738;9.214;2023-07-30T04:34:04;3.25;;;1.70;;
793;SDS011;380;48.738;9.214;2023-07-30T04:36:30;2.53;;;1.60;;
793;SDS011;380;48.738;9.214;2023-07-30T04:38:56;2.60;;;1.85;;
793;SDS011;380;48.738;9.214;2023-07-30T04:41:22;3.03;;;2.47;;
793;SDS011;380;48.738;9.214;2023-07-30T04:43:48;2.80;;;1.90;;
793;SDS011;380;48.738;9.214;2023-07-30T04:46:14;2.92;;;1.92;;
793;SDS011;380;48.738;9.214;2023-07-30T04:48:40;2.95;;;1.80;;
793;SDS011;380;48.738;9.214;2023-07-30T04:51:06;3.83;;;2.00;;
793;SDS011;380;48.738;9.214;2023-07-30T04:53:32;2.53;;;1.92;;
793;SDS011;380;48.738;9.214;2023-07-30T04:56:01;2.60;;;2.08;;
793;SDS011;380;48.738;9.214;2023-07-30T04:58:27;3.42;;;1.98;;
793;SDS011;380;48.738;9.214;2023-07-30T05:00:53;2.95;;;1.88;;
793;SDS011;380;48.738;9.214;2023-07-30T05:03:19;3.03;;;1.90;;
793;SDS011;380;48.738;9.214;2023-07-30T05:05:45;3.80;;;2.03;;
793;SDS011;380;48.738;9.214;2023-07-30T05:08:11;2.22;;;1.40;;
793;SDS011;380;48.738;9.214;2023-07-30T05:10:37;2.83;;;1.85;;
793;SDS011;380;48.738;9.214;2023-07-30T05:13:03;3.15;;;2.17;;
793;SDS011;380;48.738;9.214;2023-07-30T05:15:29;2.72;;;2.03;;
793;SDS011;380;48.738;9.214;2023-07-30T05:17:55;2.63;;;1.73;;
793;SDS011;380;48.738;9.214;2023-07-30T05:20:20;2.58;;;1.73;;
793;SDS011;380;48.738;9.214;2023-07-30T05:22:46;4.35;;;2.35;;
793;SDS011;380;48.738;9.214;2023-07-30T05:25:12;3.22;;;2.45;;
793;SDS011;380;48.738;9.214;2023-07-30T05:27:38;3.55;;;2.17;;
793;SDS011;380;48.738;9.214;2023-07-30T05:30:04;3.03;;;2.10;;
793;SDS011;380;48.738;9.214;2023-07-30T05:32:30;2.75;;;2.08;;
793;SDS011;380;48.738;9.214;2023-07-30T05:34:56;3.53;;;2.00;;
793;SDS011;380;48.738;9.214;2023-07-30T05:37:22;3.80;;;2.35;;
793;SDS011;380;48.738;9.214;2023-07-30T05:39:49;3.45;;;2.17;;
793;SDS011;380;48.738;9.214;2023-07-30T05:42:14;3.45;;;2.83;;
793;SDS011;380;48.738;9.214;2023-07-30T05:44:40;2.95;;;2.28;;
793;SDS011;380;48.738;9.214;2023-07-30T05:47:06;2.75;;;1.73;;
793;SDS011;380;48.738;9.214;2023-07-30T05:49:32;5.97;;;2.33;;
793;SDS011;380;48.738;9.214;2023-07-30T05:51:58;3.47;;;2.33;;
793;SDS011;380;48.738;9.214;2023-07-30T05:54:24;2.63;;;1.83;;
793;SDS011;380;48.738;9.214;2023-07-30T05:56:50;2.90;;;1.73;;
793;SDS011;380;48.738;9.214;2023-07-30T05:59:16;3.05;;;1.65;;
793;SDS011;380;48.738;9.214;2023-07-30T06:01:42;3.83;;;1.83;;
793;SDS011;380;48.738;9.214;2023-07-30T06:04:08;3.13;;;1.65;;
793;SDS011;380;48.738;9.214;2023-07-30T06:06:34;3.25;;;2.47;;
793;SDS011;380;48.738;9.214;2023-07-30T06:09:00;2.67;;;1.73;;
793;SDS011;380;48.738;9.214;2023-07-30T06:11:26;2.60;;;1.83;;
793;SDS011;380;48.738;9.214;2023-07-30T06:13:52;2.53;;;1.90;;
793;SDS011;380;48.738;9.214;2023-07-30T06:16:19;3.10;;;1.67;;
793;SDS011;380;48.738;9.214;2023-07-30T06:18:45;2.92;;;1.58;;
793;SDS011;380;48.738;9.214;2023-07-30T06:21:11;2.65;;;1.95;;
793;SDS011;380;48.738;9.214;2023-07-30T06:23:37;2.65;;;1.75;;
793;SDS011;380;48.738;9.214;2023-07-30T06:26:03;2.22;;;1.33;;
793;SDS011;380;48.738;9.214;2023-07-30T06:28:29;2.72;;;1.50;;
793;SDS011;380;48.738;9.214;2023-07-30T06:30:55;1.70;;;1.15;;
793;SDS011;380;48.738;9.214;2023-07-30T06:33:21;3.22;;;1.73;;
793;SDS011;380;48.738;9.214;2023-07-30T06:35:47;2.25;;;1.42;;
793;SDS011;380;48.738;9.214;2023-07-30T06:38:12;2.63;;;1.60;;
793;SDS011;380;48.738;9.214;2023-07-30T06:40:38;1.90;;;1.15;;
793;SDS011;380;48.738;9.214;2023-07-30T06:43:04;3.10;;;1.55;;
793;SDS011;380;48.738;9.214;2023-07-30T06:45:30;2.60;;;1.55;;
793;SDS011;380;48.738;9.214;2023-07-30T06:47:56;2.22;;;1.63;;
793;SDS011;380;48.738;9.214;2023-07-30T06:50:22;2.05;;;1.17;;
793;SDS011;380;48.738;9.214;2023-07-30T06:52:48;2.17;;;1.10;;
793;SDS011;380;48.738;9.214;2023-07-30T06:55:14;2.55;;;1.30;;
793;SDS011;380;48.738;9.214;2023-07-30T06:57:40;2.55;;;1.35;;
793;SDS011;380;48.738;9.214;2023-07-30T07:00:06;2.42;;;1.38;;
793;SDS011;380;48.738;9.214;2023-07-30T07:02:32;1.75;;;0.93;;
793;SDS011;380;48.738;9.214;2023-07-30T07:04:58;3.05;;;1.40;;
793;SDS011;380;48.738;9.214;2023-07-30T07:07:24;2.00;;;1.15;;
793;SDS011;380;48.738;9.214;2023-07-30T07:09:50;1.75;;;0.90;;
793;SDS011;380;48.738;9.214;2023-07-30T07:12:16;2.15;;;1.10;;
793;SDS011;380;48.738;9.214;2023-07-30T07:14:42;7.70;;;2.00;;
793;SDS011;380;48.738;9.214;2023-07-30T07:17:08;2.53;;;1.63;;
793;SDS011;380;48.738;9.214;2023-07-30T07:19:34;2.50;;;1.15;;
793;SDS011;380;48.738;9.214;2023-07-30T07:22:04;2.03;;;1.33;;
793;SDS011;380;48.738;9.214;2023-07-30T07:24:30;2.38;;;1.30;;
793;SDS011;380;48.738;9.214;2023-07-30T07:26:56;1.77;;;0.98;;
793;SDS011;380;48.738;9.214;2023-07-30T07:29:22;2.33;;;1.27;;
793;SDS011;380;48.738;9.214;2023-07-30T07:31:48;1.95;;;1.00;;
793;SDS011;380;48.738;9.214;2023-07-30T07:34:14;2.42;;;1.15;;
793;SDS011;380;48.738;9.214;2023-07-30T07:36:40;3.13;;;1.10;;
793;SDS011;380;48.738;9.214;2023-07-30T07:39:06;2.03;;;1.00;;
793;SDS011;380;48.738;9.214;2023-07-30T07:41:32;1.30;;;0.75;;
793;SDS011;380;48.738;9.214;2023-07-30T07:43:58;3.22;;;1.42;;
793;SDS011;380;48.738;9.214;2023-07-30T07:46:24;2.15;;;1.00;;
793;SDS011;380;48.738;9.214;2023-07-30T07:48:52;1.98;;;0.93;;
793;SDS011;380;48.738;9.214;2023-07-30T07:51:18;1.30;;;0.70;;
793;SDS011;380;48.738;9.214;2023-07-30T07:53:44;1.45;;;0.90;;
793;SDS011;380;48.738;9.214;2023-07-30T07:56:10;1.55;;;0.77;;
793;SDS011;380;48.738;9.214;2023-07-30T07:58:35;1.05;;;0.68;;
793;SDS011;380;48.738;9.214;2023-07-30T08:01:02;1.63;;;0.77;;
793;SDS011;380;48.738;9.214;2023-07-30T08:03:28;1.50;;;0.73;;
793;SDS011;380;48.738;9.214;2023-07-30T08:05:54;2.10;;;0.82;;
793;SDS011;380;48.738;9.214;2023-07-30T08:08:20;0.82;;;0.47;;
793;SDS011;380;48.738;9.214;2023-07-30T08:10:46;1.90;;;0.93;;
793;SDS011;380;48.738;9.214;2023-07-30T08:13:13;1.90;;;0.98;;
793;SDS011;380;48.738;9.214;2023-07-30T08:15:39;2.20;;;0.90;;
793;SDS011;380;48.738;9.214;2023-07-30T08:18:05;1.02;;;0.63;;
793;SDS011;380;48.738;9.214;2023-07-30T08:20:31;2.10;;;1.10;;
793;SDS011;380;48.738;9.214;2023-07-30T08:22:59;0.98;;;0.57;;
793;SDS011;380;48.738;9.214;2023-07-30T08:25:25;1.88;;;1.00;;
793;SDS011;380;48.738;9.214;2023-07-30T08:27:51;1.25;;;0.68;;
793;SDS011;380;48.738;9.214;2023-07-30T08:30:17;1.33;;;0.73;;
793;SDS011;380;48.738;9.214;2023-07-30T08:32:43;1.30;;;0.77;;
793;SDS011;380;48.738;9.214;2023-07-30T08:35:09;1.88;;;0.95;;
793;SDS011;380;48.738;9.214;2023-07-30T08:37:35;2.53;;;1.00;;
793;SDS011;380;48.738;9.214;2023-07-30T08:40:01;2.92;;;1.23;;
793;SDS011;380;48.738;9.214;2023-07-30T08:42:27;1.90;;;1.00;;
793;SDS011;380;48.738;9.214;2023-07-30T08:44:53;2.70;;;1.00;;
793;SDS011;380;48.738;9.214;2023-07-30T08:47:19;1.67;;;0.85;;
793;SDS011;380;48.738;9.214;2023-07-30T08:49:45;1.38;;;0.77;;
793;SDS011;380;48.738;9.214;2023-07-30T08:52:11;1.50;;;0.70;;
793;SDS011;380;48.738;9.214;2023-07-30T08:54:37;1.70;;;0.70;;
793;SDS011;380;48.738;9.214;2023-07-30T08:57:04;1.75;;;1.13;;
793;SDS011;380;48.738;9.214;2023-07-30T08:59:33;1.58;;;0.88;;
793;SDS011;380;48.738;9.214;2023-07-30T09:02:03;1.42;;;0.85;;
793;SDS011;380;48.738;9.214;2023-07-30T09:04:29;2.03;;;1.08;;
793;SDS011;380;48.738;9.214;2023-07-30T09:06:59;1.77;;;0.90;;
793;SDS011;380;48.738;9.214;2023-07-30T09:09:25;1.88;;;1.10;;
793;SDS011;380;48.738;9.214;2023-07-30T09:11:51;2.03;;;0.98;;
793;SDS011;380;48.738;9.214;2023-07-30T09:14:21;1.48;;;0.82;;
793;SDS011;380;48.738;9.214;2023-07-30T09:16:47;2.33;;;1.20;;
793;SDS011;380;48.738;9.214;2023-07-30T09:19:16;2.13;;;1.05;;
793;SDS011;380;48.738;9.214;2023-07-30T09:21:42;2.58;;;1.35;;
793;SDS011;380;48.738;9.214;2023-07-30T09:24:08;2.38;;;0.88;;
793;SDS011;380;48.738;9.214;2023-07-30T09:26:45;4.00;;;1.55;;
793;SDS011;380;48.738;9.214;2023-07-30T09:29:11;2.72;;;1.30;;
793;SDS011;380;48.738;9.214;2023-07-30T09:31:50;2.53;;;1.30;;
793;SDS011;380;48.738;9.214;2023-07-30T09:34:18;1.50;;;0.90;;
793;SDS011;380;48.738;9.214;2023-07-30T09:36:45;1.48;;;0.88;;
793;SDS011;380;48.738;9.214;2023-07-30T09:39:15;1.55;;;0.95;;
793;SDS011;380;48.738;9.214;2023-07-30T09:41:41;2.38;;;1.10;;
793;SDS011;380;48.738;9.214;2023-07-30T09:44:07;2.05;;;1.08;;
793;SDS011;380;48.738;9.214;2023-07-30T09:46:38;4.15;;;0.90;;
793;SDS011;380;48.738;9.214;2023-07-30T09:49:08;2.35;;;0.90;;
793;SDS011;380;48.738;9.214;2023-07-30T09:51:34;2.42;;;1.08;;
793;SDS011;380;48.738;9.214;2023-07-30T09:54:00;2.05;;;1.27;;
793;SDS011;380;48.738;9.214;2023-07-30T09:56:27;1.95;;;1.10;;
793;SDS011;380;48.738;9.214;2023-07-30T09:58:53;1.77;;;0.95;;
793;SDS011;380;48.738;9.214;2023-07-30T10:01:18;1.90;;;0.82;;
793;SDS011;380;48.738;9.214;2023-07-30T10:03:46;2.28;;;1.45;;
793;SDS011;380;48.738;9.214;2023-07-30T10:06:13;2.08;;;0.93;;
793;SDS011;380;48.738;9.214;2023-07-30T10:08:39;3.33;;;1.42;;
793;SDS011;380;48.738;9.214;2023-07-30T10:11:07;2.13;;;1.13;;
793;SDS011;380;48.738;9.214;2023-07-30T10:13:34;1.80;;;1.10;;
793;SDS011;380;48.738;9.214;2023-07-30T10:16:00;2.10;;;1.08;;
793;SDS011;380;48.738;9.214;2023-07-30T10:18:39;2.10;;;1.20;;
793;SDS011;380;48.738;9.214;2023-07-30T10:21:08;2.10;;;1.20;;
793;SDS011;380;48.738;9.214;2023-07-30T10:23:35;2.53;;;1.13;;
793;SDS011;380;48.738;9.214;2023-07-30T10:26:10;2.10;;;1.15;;
793;SDS011;380;48.738;9.214;2023-07-30T10:28:36;2.35;;;1.20;;
793;SDS011;380;48.738;9.214;2023-07-30T10:31:05;1.73;;;0.93;;
793;SDS011;380;48.738;9.214;2023-07-30T10:33:50;2.53;;;1.33;;
793;SDS011;380;48.738;9.214;2023-07-30T10:36:17;2.05;;;1.10;;
793;SDS011;380;48.738;9.214;2023-07-30T10:38:44;3.60;;;1.08;;
793;SDS011;380;48.738;9.214;2023-07-30T10:41:12;1.80;;;1.02;;
793;SDS011;380;48.738;9.214;2023-07-30T10:43:39;2.20;;;1.00;;
793;SDS011;380;48.738;9.214;2023-07-30T10:46:05;3.95;;;1.10;;
793;SDS011;380;48.738;9.214;2023-07-30T10:48:35;2.78;;;1.50;;
793;SDS011;380;48.738;9.214;2023-07-30T10:51:02;1.92;;;1.15;;
793;SDS011;380;48.738;9.214;2023-07-30T10:53:28;2.70;;;1.50;;
793;SDS011;380;48.738;9.214;2023-07-30T10:55:56;2.33;;;1.20;;
793;SDS011;380;48.738;9.214;2023-07-30T10:58:25;1.95;;;1.20;;
793;SDS011;380;48.738;9.214;2023-07-30T11:00:52;2.65;;;1.30;;
793;SDS011;380;48.738;9.214;2023-07-30T11:03:18;2.40;;;1.73;;
793;SDS011;380;48.738;9.214;2023-07-30T11:05:47;2.53;;;1.05;;
793;SDS011;380;48.738;9.214;2023-07-30T11:08:13;1.70;;;0.77;;
793;SDS011;380;48.738;9.214;2023-07-30T11:10:45;1.90;;;1.00;;
793;SDS011;380;48.738;9.214;2023-07-30T11:13:12;3.00;;;1.30;;
793;SDS011;380;48.738;9.214;2023-07-30T11:15:41;1.98;;;1.25;;
793;SDS011;380;48.738;9.214;2023-07-30T11:18:08;2.17;;;1.17;;
793;SDS011;380;48.738;9.214;2023-07-30T11:20:34;2.47;;;1.10;;
793;SDS011;380;48.738;9.214;2023-07-30T11:23:00;1.90;;;1.00;;
793;SDS011;380;48.738;9.214;2023-07-30T11:25:26;2.78;;;1.42;;
793;SDS011;380;48.738;9.214;2023-07-30T11:27:52;1.98;;;1.50;;
793;SDS011;380;48.738;9.214;2023-07-30T11:30:18;3.47;;;1.17;;
793;SDS011;380;48.738;9.214;2023-07-30T11:32:44;2.42;;;1.55;;
793;SDS011;380;48.738;9.214;2023-07-30T11:35:13;2.20;;;1.20;;
793;SDS011;380;48.738;9.214;2023-07-30T11:37:40;2.05;;;1.23;;
793;SDS011;380;48.738;9.214;2023-07-30T11:40:08;4.57;;;1.58;;
793;SDS011;380;48.738;9.214;2023-07-30T11:42:35;1.58;;;1.00;;
793;SDS011;380;48.738;9.214;2023-07-30T11:45:20;2.55;;;1.20;;
793;SDS011;380;48.738;9.214;2023-07-30T11:47:46;2.83;;;1.35;;
793;SDS011;380;48.738;9.214;2023-07-30T11:50:12;2.55;;;1.17;;
793;SDS011;380;48.738;9.214;2023-07-30T11:52:54;2.30;;;1.38;;
793;SDS011;380;48.738;9.214;2023-07-30T11:55:20;2.80;;;1.65;;
793;SDS011;380;48.738;9.214;2023-07-30T11:57:46;2.00;;;1.30;;
793;SDS011;380;48.738;9.214;2023-07-30T12:00:12;2.50;;;1.50;;
793;SDS011;380;48.738;9.214;2023-07-30T12:02:39;3.92;;;1.52;;
793;SDS011;380;48.738;9.214;2023-07-30T12:05:05;2.33;;;1.48;;
793;SDS011;380;48.738;9.214;2023-07-30T12:07:32;2.05;;;1.27;;
793;SDS011;380;48.738;9.214;2023-07-30T12:10:10;2.05;;;1.48;;
793;SDS011;380;48.738;9.214;2023-07-30T12:12:43;2.03;;;1.30;;
793;SDS011;380;48.738;9.214;2023-07-30T12:15:10;1.70;;;1.20;;
793;SDS011;380;48.738;9.214;2023-07-30T12:17:37;4.47;;;1.65;;
793;SDS011;380;48.738;9.214;2023-07-30T12:20:03;1.90;;;1.20;;
793;SDS011;380;48.738;9.214;2023-07-30T12:22:31;2.38;;;1.50;;
793;SDS011;380;48.738;9.214;2023-07-30T12:24:58;2.00;;;1.10;;
793;SDS011;380;48.738;9.214;2023-07-30T12:27:23;3.30;;;1.48;;
793;SDS011;380;48.738;9.214;2023-07-30T12:29:49;3.22;;;1.60;;
793;SDS011;380;48.738;9.214;2023-07-30T12:32:15;3.63;;;1.33;;
793;SDS011;380;48.738;9.214;2023-07-30T12:34:41;8.13;;;1.80;;
793;SDS011;380;48.738;9.214;2023-07-30T12:37:07;2.17;;;1.23;;
793;SDS011;380;48.738;9.214;2023-07-30T12:39:34;2.30;;;1.40;;
793;SDS011;380;48.738;9.214;2023-07-30T12:42:00;2.58;;;1.65;;
793;SDS011;380;48.738;9.214;2023-07-30T12:44:26;2.95;;;1.63;;
793;SDS011;380;48.738;9.214;2023-07-30T12:46:52;2.95;;;1.67;;
793;SDS011;380;48.738;9.214;2023-07-30T12:49:18;2.63;;;1.63;;
793;SDS011;380;48.738;9.214;2023-07-30T12:51:44;1.98;;;1.27;;
793;SDS011;380;48.738;9.214;2023-07-30T12:54:10;2.30;;;1.20;;
793;SDS011;380;48.738;9.214;2023-07-30T12:56:36;2.10;;;1.20;;
793;SDS011;380;48.738;9.214;2023-07-30T12:59:02;1.83;;;1.20;;
793;SDS011;380;48.738;9.214;2023-07-30T13:01:28;2.45;;;1.27;;
793;SDS011;380;48.738;9.214;2023-07-30T13:03:54;2.08;;;1.10;;
793;SDS011;380;48.738;9.214;2023-07-30T13:06:20;2.20;;;1.13;;
793;SDS011;380;48.738;9.214;2023-07-30T13:08:46;2.47;;;1.15;;
793;SDS011;380;48.738;9.214;2023-07-30T13:11:12;2.92;;;1.27;;
793;SDS011;380;48.738;9.214;2023-07-30T13:13:39;1.30;;;0.80;;
793;SDS011;380;48.738;9.214;2023-07-30T13:16:05;2.42;;;1.42;;
793;SDS011;380;48.738;9.214;2023-07-30T13:18:31;2.00;;;1.27;;
793;SDS011;380;48.738;9.214;2023-07-30T13:20:57;4.60;;;1.20;;
793;SDS011;380;48.738;9.214;2023-07-30T13:23:23;2.22;;;1.30;;
793;SDS011;380;48.738;9.214;2023-07-30T13:25:51;2.13;;;1.13;;
793;SDS011;380;48.738;9.214;2023-07-30T13:28:17;4.65;;;1.40;;
793;SDS011;380;48.738;9.214;2023-07-30T13:30:43;2.45;;;1.00;;
793;SDS011;380;48.738;9.214;2023-07-30T13:33:09;3.15;;;1.60;;
793;SDS011;380;48.738;9.214;2023-07-30T13:35:35;1.95;;;1.08;;
793;SDS011;380;48.738;9.214;2023-07-30T13:38:01;1.92;;;1.13;;
793;SDS011;380;48.738;9.214;2023-07-30T13:40:27;1.90;;;0.85;;
793;SDS011;380;48.738;9.214;2023-07-30T13:42:53;2.42;;;1.13;;
793;SDS011;380;48.738;9.214;2023-07-30T13:45:19;1.90;;;0.90;;
793;SDS011;380;48.738;9.214;2023-07-30T13:47:45;2.78;;;1.70;;
793;SDS011;380;48.738;9.214;2023-07-30T13:50:11;1.77;;;1.02;;
793;SDS011;380;48.738;9.214;2023-07-30T13:52:37;4.75;;;1.27;;
793;SDS011;380;48.738;9.214;2023-07-30T13:55:03;2.20;;;1.00;;
793;SDS011;380;48.738;9.214;2023-07-30T13:57:29;2.08;;;1.23;;
793;SDS011;380;48.738;9.214;2023-07-30T13:59:55;2.50;;;1.45;;
793;SDS011;380;48.738;9.214;2023-07-30T14:02:21;2.10;;;1.23;;
793;SDS011;380;48.738;9.214;2023-07-30T14:04:47;2.35;;;1.08;;
793;SDS011;380;48.738;9.214;2023-07-30T14:07:12;3.78;;;1.10;;
793;SDS011;380;48.738;9.214;2023-07-30T14:09:39;3.75;;;1.00;;
793;SDS011;380;48.738;9.214;2023-07-30T14:12:05;1.92;;;1.00;;
793;SDS011;380;48.738;9.214;2023-07-30T14:14:31;2.33;;;1.10;;
793;SDS011;380;48.738;9.214;2023-07-30T14:16:57;2.88;;;1.20;;
793;SDS011;380;48.738;9.214;2023-07-30T14:19:23;3.75;;;1.10;;
793;SDS011;380;48.738;9.214;2023-07-30T14:21:50;4.00;;;0.90;;
793;SDS011;380;48.738;9.214;2023-07-30T14:24:16;4.35;;;0.95;;
793;SDS011;380;48.738;9.214;2023-07-30T14:26:41;2.20;;;0.93;;
793;SDS011;380;48.738;9.214;2023-07-30T14:29:07;1.95;;;1.45;;
793;SDS011;380;48.738;9.214;2023-07-30T14:31:33;2.40;;;1.25;;
793;SDS011;380;48.738;9.214;2023-07-30T14:33:59;1.98;;;1.13;;
793;SDS011;380;48.738;9.214;2023-07-30T14:36:25;2.22;;;1.27;;
793;SDS011;380;48.738;9.214;2023-07-30T14:38:51;2.55;;;1.13;;
793;SDS011;380;48.738;9.214;2023-07-30T14:41:17;2.00;;;1.10;;
793;SDS011;380;48.738;9.214;2023-07-30T14:43:43;2.33;;;1.25;;
793;SDS011;380;48.738;9.214;2023-07-30T14:46:09;4.28;;;1.83;;
793;SDS011;380;48.738;9.214;2023-07-30T14:48:40;1.95;;;1.23;;
793;SDS011;380;48.738;9.214;2023-07-30T14:51:06;2.83;;;1.50;;
793;SDS011;380;48.738;9.214;2023-07-30T14:53:32;2.10;;;1.17;;
793;SDS011;380;48.738;9.214;2023-07-30T14:55:58;1.92;;;1.02;;
793;SDS011;380;48.738;9.214;2023-07-30T14:58:24;1.92;;;1.10;;
793;SDS011;380;48.738;9.214;2023-07-30T15:00:50;2.42;;;1.17;;
793;SDS011;380;48.738;9.214;2023-07-30T15:03:16;1.73;;;0.88;;
793;SDS011;380;48.738;9.214;2023-07-30T15:05:42;1.77;;;0.85;;
793;SDS011;380;48.738;9.214;2023-07-30T15:08:08;3.10;;;1.20;;
793;SDS011;380;48.738;9.214;2023-07-30T15:10:34;2.15;;;0.98;;
793;SDS011;380;48.738;9.214;2023-07-30T15:13:00;2.92;;;1.42;;
793;SDS011;380;48.738;9.214;2023-07-30T15:15:26;2.22;;;1.05;;
793;SDS011;380;48.738;9.214;2023-07-30T15:17:52;1.35;;;0.70;;
793;SDS011;380;48.738;9.214;2023-07-30T15:20:18;2.15;;;1.17;;
793;SDS011;380;48.738;9.214;2023-07-30T15:22:44;1.95;;;0.70;;
793;SDS011;380;48.738;9.214;2023-07-30T15:25:10;2.22;;;0.90;;
793;SDS011;380;48.738;9.214;2023-07-30T15:27:36;2.35;;;1.15;;
793;SDS011;380;48.738;9.214;2023-07-30T15:30:02;4.00;;;0.70;;
793;SDS011;380;48.738;9.214;2023-07-30T15:32:29;4.55;;;1.20;;
793;SDS011;380;48.738;9.214;2023-07-30T15:34:55;1.98;;;0.88;;
793;SDS011;380;48.738;9.214;2023-07-30T15:37:21;1.40;;;0.73;;
793;SDS011;380;48.738;9.214;2023-07-30T15:39:47;4.20;;;0.77;;